sensor_id;sensor_type;location;lat;lon;timestamp;pressure;altitude;pressure_sealevel;temperature;humidity
28701;BME280;15877;52.344;16.790;2023-10-13T00:00:46;100637.30;;;15.17;87.75
28701;BME280;15877;52.344;16.790;2023-10-13T00:03:39;100640.36;;;15.19;87.62
28701;BME280;15877;52.344;16.790;2023-10-13T00:06:12;100641.55;;;15.21;87.72
28701;BME280;15877;52.344;16.790;2023-10-13T00:08:44;100641.81;;;15.22;87.77
28701;BME280;15877;52.344;16.790;2023-10-13T00:11:16;100641.27;;;15.22;87.51
28701;BME280;15877;52.344;16.790;2023-10-13T00:13:49;100640.06;;;15.23;87.88
28701;BME280;15877;52.344;16.790;2023-10-13T00:16:23;100638.14;;;15.23;87.52
28701;BME280;15877;52.344;16.790;2023-10-13T00:18:58;100633.75;;;15.25;87.56
28701;BME280;15877;52.344;16.790;2023-10-13T00:21:31;100636.96;;;15.25;87.77
28701;BME280;15877;52.344;16.790;2023-10-13T00:24:03;100639.60;;;15.26;88.28
28701;BME280;15877;52.344;16.790;2023-10-13T00:26:43;100645.53;;;15.28;88.65
28701;BME280;15877;52.344;16.790;2023-10-13T00:29:16;100648.59;;;15.29;88.07
28701;BME280;15877;52.344;16.790;2023-10-13T00:31:48;100651.23;;;15.30;88.25
28701;BME280;15877;52.344;16.790;2023-10-13T00:34:24;100647.80;;;15.32;88.02
28701;BME280;15877;52.344;16.790;2023-10-13T00:37:00;100648.69;;;15.33;87.58
28701;BME280;15877;52.344;16.790;2023-10-13T00:39:48;100648.94;;;15.34;87.75
28701;BME280;15877;52.344;16.790;2023-10-13T00:42:27;100643.89;;;15.34;87.85
28701;BME280;15877;52.344;16.790;2023-10-13T00:45:22;100643.34;;;15.34;88.22
28701;BME280;15877;52.344;16.790;2023-10-13T00:47:59;100646.55;;;15.35;88.03
28701;BME280;15877;52.344;16.790;2023-10-13T00:50:33;100646.70;;;15.36;88.17
28701;BME280;15877;52.344;16.790;2023-10-13T00:53:08;100648.55;;;15.37;87.80
28701;BME280;15877;52.344;16.790;2023-10-13T00:55:41;100648.71;;;15.37;88.39
28701;BME280;15877;52.344;16.790;2023-10-13T00:58:15;100630.73;;;15.27;88.21
28701;BME280;15877;52.344;16.790;2023-10-13T01:00:54;100644.14;;;15.38;88.32
28701;BME280;15877;52.344;16.790;2023-10-13T01:03:47;100640.66;;;15.39;88.17
28701;BME280;15877;52.344;16.790;2023-10-13T01:06:20;100642.52;;;15.41;88.10
28701;BME280;15877;52.344;16.790;2023-10-13T01:09:01;100640.60;;;15.41;88.09
28701;BME280;15877;52.344;16.790;2023-10-13T01:11:43;100632.61;;;15.42;87.89
28701;BME280;15877;52.344;16.790;2023-10-13T01:14:17;100631.97;;;15.42;87.70
28701;BME280;15877;52.344;16.790;2023-10-13T01:16:51;100625.73;;;15.42;87.96
28701;BME280;15877;52.344;16.790;2023-10-13T01:19:26;100619.80;;;15.41;87.97
28701;BME280;15877;52.344;16.790;2023-10-13T01:21:59;100619.40;;;15.40;87.70
28701;BME280;15877;52.344;16.790;2023-10-13T01:24:35;100621.66;;;15.43;87.20
28701;BME280;15877;52.344;16.790;2023-10-13T01:27:09;100614.84;;;15.40;87.62
28701;BME280;15877;52.344;16.790;2023-10-13T01:29:49;100609.16;;;15.31;88.02
28701;BME280;15877;52.344;16.790;2023-10-13T01:32:24;100605.02;;;15.33;88.25
28701;BME280;15877;52.344;16.790;2023-10-13T01:34:57;100598.70;;;15.34;88.32
28701;BME280;15877;52.344;16.790;2023-10-13T01:37:37;100599.99;;;15.35;88.32
28701;BME280;15877;52.344;16.790;2023-10-13T01:40:10;100598.08;;;15.36;88.40
28701;BME280;15877;52.344;16.790;2023-10-13T01:42:49;100607.12;;;15.38;88.10
28701;BME280;15877;52.344;16.790;2023-10-13T01:45:26;100582.02;;;15.23;88.38
28701;BME280;15877;52.344;16.790;2023-10-13T01:48:01;100603.55;;;15.40;88.38
28701;BME280;15877;52.344;16.790;2023-10-13T01:50:37;100600.67;;;15.39;88.42
28701;BME280;15877;52.344;16.790;2023-10-13T01:53:09;100598.19;;;15.39;88.43
28701;BME280;15877;52.344;16.790;2023-10-13T01:55:43;100600.91;;;15.40;88.48
28701;BME280;15877;52.344;16.790;2023-10-13T01:58:17;100604.05;;;15.41;88.40
28701;BME280;15877;52.344;16.790;2023-10-13T02:00:54;100605.73;;;15.41;88.87
28701;BME280;15877;52.344;16.790;2023-10-13T02:03:27;100612.29;;;15.42;88.68
28701;BME280;15877;52.344;16.790;2023-10-13T02:06:01;100609.41;;;15.41;88.67
28701;BME280;15877;52.344;16.790;2023-10-13T02:08:35;100613.10;;;15.42;88.55
28701;BME280;15877;52.344;16.790;2023-10-13T02:11:11;100611.35;;;15.43;88.59
28701;BME280;15877;52.344;16.790;2023-10-13T02:13:43;100604.86;;;15.42;89.19
28701;BME280;15877;52.344;16.790;2023-10-13T02:16:19;100611.98;;;15.43;89.40
28701;BME280;15877;52.344;16.790;2023-10-13T02:18:53;100605.58;;;15.42;89.61
28701;BME280;15877;52.344;16.790;2023-10-13T02:21:25;100606.61;;;15.42;89.72
28701;BME280;15877;52.344;16.790;2023-10-13T02:24:03;100611.26;;;15.43;89.56
28701;BME280;15877;52.344;16.790;2023-10-13T02:26:35;100614.86;;;15.44;89.73
28701;BME280;15877;52.344;16.790;2023-10-13T02:29:10;100618.78;;;15.43;90.04
28701;BME280;15877;52.344;16.790;2023-10-13T02:31:45;100622.08;;;15.44;89.92
28701;BME280;15877;52.344;16.790;2023-10-13T02:34:26;100619.10;;;15.45;90.00
28701;BME280;15877;52.344;16.790;2023-10-13T02:36:58;100615.75;;;15.47;90.04
28701;BME280;15877;52.344;16.790;2023-10-13T02:39:30;100612.88;;;15.46;90.67
28701;BME280;15877;52.344;16.790;2023-10-13T02:42:07;100621.68;;;15.47;90.97
28701;BME280;15877;52.344;16.790;2023-10-13T02:44:39;100630.40;;;15.48;90.59
28701;BME280;15877;52.344;16.790;2023-10-13T02:47:17;100621.92;;;15.47;90.85
28701;BME280;15877;52.344;16.790;2023-10-13T02:49:51;100613.94;;;15.49;90.47
28701;BME280;15877;52.344;16.790;2023-10-13T02:52:23;100602.17;;;15.49;90.29
28701;BME280;15877;52.344;16.790;2023-10-13T02:54:56;100594.58;;;15.50;90.44
28701;BME280;15877;52.344;16.790;2023-10-13T02:57:28;100590.18;;;15.51;90.41
28701;BME280;15877;52.344;16.790;2023-10-13T03:00:08;100586.83;;;15.52;90.33
28701;BME280;15877;52.344;16.790;2023-10-13T03:02:44;100584.19;;;15.53;90.78
28701;BME280;15877;52.344;16.790;2023-10-13T03:05:32;100591.31;;;15.54;90.49
28701;BME280;15877;52.344;16.790;2023-10-13T03:08:07;100599.71;;;15.55;90.82
28701;BME280;15877;52.344;16.790;2023-10-13T03:10:41;100598.91;;;15.56;90.29
28701;BME280;15877;52.344;16.790;2023-10-13T03:13:18;100597.64;;;15.55;90.38
28701;BME280;15877;52.344;16.790;2023-10-13T03:15:51;100597.23;;;15.56;89.94
28701;BME280;15877;52.344;16.790;2023-10-13T03:18:26;100599.80;;;15.56;90.10
28701;BME280;15877;52.344;16.790;2023-10-13T03:21:04;100603.63;;;15.56;90.03
28701;BME280;15877;52.344;16.790;2023-10-13T03:23:38;100601.80;;;15.56;90.04
28701;BME280;15877;52.344;16.790;2023-10-13T03:26:17;100607.41;;;15.56;89.64
28701;BME280;15877;52.344;16.790;2023-10-13T03:28:52;100604.27;;;15.56;89.67
28701;BME280;15877;52.344;16.790;2023-10-13T03:31:27;100602.92;;;15.55;89.69
28701;BME280;15877;52.344;16.790;2023-10-13T03:34:00;100603.15;;;15.56;89.45
28701;BME280;15877;52.344;16.790;2023-10-13T03:36:32;100601.89;;;15.57;89.56
28701;BME280;15877;52.344;16.790;2023-10-13T03:39:21;100600.44;;;15.56;89.68
28701;BME280;15877;52.344;16.790;2023-10-13T03:42:01;100582.39;;;15.49;89.52
28701;BME280;15877;52.344;16.790;2023-10-13T03:44:36;100589.86;;;15.54;89.81
28701;BME280;15877;52.344;16.790;2023-10-13T03:47:09;100589.55;;;15.53;89.58
28701;BME280;15877;52.344;16.790;2023-10-13T03:49:49;100592.75;;;15.55;89.51
28701;BME280;15877;52.344;16.790;2023-10-13T03:52:22;100590.19;;;15.54;89.53
28701;BME280;15877;52.344;16.790;2023-10-13T03:54:56;100586.19;;;15.55;89.74
28701;BME280;15877;52.344;16.790;2023-10-13T03:57:29;100577.14;;;15.54;89.65
28701;BME280;15877;52.344;16.790;2023-10-13T04:00:07;100578.20;;;15.54;89.63
28701;BME280;15877;52.344;16.790;2023-10-13T04:02:42;100575.14;;;15.53;89.86
28701;BME280;15877;52.344;16.790;2023-10-13T04:05:24;100574.84;;;15.53;89.47
28701;BME280;15877;52.344;16.790;2023-10-13T04:08:08;100572.09;;;15.51;89.84
28701;BME280;15877;52.344;16.790;2023-10-13T04:10:58;100571.77;;;15.51;89.67
28701;BME280;15877;52.344;16.790;2023-10-13T04:13:48;100554.39;;;15.44;89.65
28701;BME280;15877;52.344;16.790;2023-10-13T04:16:49;100563.77;;;15.52;89.78
28701;BME280;15877;52.344;16.790;2023-10-13T04:19:25;100561.70;;;15.53;89.38
28701;BME280;15877;52.344;16.790;2023-10-13T04:22:00;100554.26;;;15.52;89.33
28701;BME280;15877;52.344;16.790;2023-10-13T04:24:49;100556.09;;;15.50;89.46
28701;BME280;15877;52.344;16.790;2023-10-13T04:27:53;100553.91;;;15.46;89.72
28701;BME280;15877;52.344;16.790;2023-10-13T04:30:49;100555.43;;;15.46;89.85
28701;BME280;15877;52.344;16.790;2023-10-13T04:33:31;100557.99;;;15.47;89.99
28701;BME280;15877;52.344;16.790;2023-10-13T04:36:17;100554.00;;;15.46;89.88
28701;BME280;15877;52.344;16.790;2023-10-13T04:38:54;100550.48;;;15.45;90.13
28701;BME280;15877;52.344;16.790;2023-10-13T04:41:32;100541.91;;;15.46;90.16
28701;BME280;15877;52.344;16.790;2023-10-13T04:44:14;100546.23;;;15.47;89.98
28701;BME280;15877;52.344;16.790;2023-10-13T04:47:19;100546.40;;;15.47;90.34
28701;BME280;15877;52.344;16.790;2023-10-13T04:49:53;100542.48;;;15.49;89.66
28701;BME280;15877;52.344;16.790;2023-10-13T04:52:30;100538.15;;;15.47;90.03
28701;BME280;15877;52.344;16.790;2023-10-13T04:55:34;100539.05;;;15.49;89.79
28701;BME280;15877;52.344;16.790;2023-10-13T04:58:31;100530.01;;;15.50;89.52
28701;BME280;15877;52.344;16.790;2023-10-13T05:01:39;100535.70;;;15.55;89.74
28701;BME280;15877;52.344;16.790;2023-10-13T05:04:45;100536.88;;;15.48;89.89
28701;BME280;15877;52.344;16.790;2023-10-13T05:07:53;100532.08;;;15.47;90.44
28701;BME280;15877;52.344;16.790;2023-10-13T05:10:43;100537.61;;;15.46;90.60
28701;BME280;15877;52.344;16.790;2023-10-13T05:13:33;100539.11;;;15.46;90.79
28701;BME280;15877;52.344;16.790;2023-10-13T05:16:23;100532.38;;;15.41;90.54
28701;BME280;15877;52.344;16.790;2023-10-13T05:19:28;100533.27;;;15.45;90.29
28701;BME280;15877;52.344;16.790;2023-10-13T05:22:18;100528.93;;;15.41;90.85
28701;BME280;15877;52.344;16.790;2023-10-13T05:25:16;100537.96;;;15.40;91.15
28701;BME280;15877;52.344;16.790;2023-10-13T05:28:06;100540.27;;;15.39;91.41
28701;BME280;15877;52.344;16.790;2023-10-13T05:31:05;100543.25;;;15.42;90.80
28701;BME280;15877;52.344;16.790;2023-10-13T05:33:56;100544.93;;;15.41;91.07
28701;BME280;15877;52.344;16.790;2023-10-13T05:36:46;100545.00;;;15.41;90.85
28701;BME280;15877;52.344;16.790;2023-10-13T05:39:32;100543.51;;;15.42;91.09
28701;BME280;15877;52.344;16.790;2023-10-13T05:42:22;100539.56;;;15.40;90.91
28701;BME280;15877;52.344;16.790;2023-10-13T05:45:12;100542.77;;;15.42;91.18
28701;BME280;15877;52.344;16.790;2023-10-13T05:48:11;100539.87;;;15.38;91.46
28701;BME280;15877;52.344;16.790;2023-10-13T05:50:46;100540.08;;;15.46;91.37
28701;BME280;15877;52.344;16.790;2023-10-13T05:53:44;100543.13;;;15.46;91.35
28701;BME280;15877;52.344;16.790;2023-10-13T05:56:34;100541.11;;;15.44;91.95
28701;BME280;15877;52.344;16.790;2023-10-13T05:59:24;100543.75;;;15.45;91.66
28701;BME280;15877;52.344;16.790;2023-10-13T06:02:15;100543.83;;;15.45;92.25
28701;BME280;15877;52.344;16.790;2023-10-13T06:05:07;100540.31;;;15.42;92.81
28701;BME280;15877;52.344;16.790;2023-10-13T06:07:58;100529.95;;;15.36;92.68
28701;BME280;15877;52.344;16.790;2023-10-13T06:10:49;100553.99;;;15.45;92.95
28701;BME280;15877;52.344;16.790;2023-10-13T06:13:39;100551.36;;;15.47;92.86
28701;BME280;15877;52.344;16.790;2023-10-13T06:16:29;100551.98;;;15.45;93.83
28701;BME280;15877;52.344;16.790;2023-10-13T06:19:19;100553.20;;;15.46;93.80
28701;BME280;15877;52.344;16.790;2023-10-13T06:22:10;100558.56;;;15.49;93.70
28701;BME280;15877;52.344;16.790;2023-10-13T06:25:00;100553.95;;;15.53;93.45
28701;BME280;15877;52.344;16.790;2023-10-13T06:27:50;100552.89;;;15.49;94.32
28701;BME280;15877;52.344;16.790;2023-10-13T06:30:40;100550.08;;;15.46;95.53
28701;BME280;15877;52.344;16.790;2023-10-13T06:33:15;100551.12;;;15.46;95.66
28701;BME280;15877;52.344;16.790;2023-10-13T06:35:52;100536.86;;;15.44;94.93
28701;BME280;15877;52.344;16.790;2023-10-13T06:38:27;100553.87;;;15.53;95.04
28701;BME280;15877;52.344;16.790;2023-10-13T06:41:07;100553.27;;;15.48;96.50
28701;BME280;15877;52.344;16.790;2023-10-13T06:43:40;100554.94;;;15.43;97.48
28701;BME280;15877;52.344;16.790;2023-10-13T06:46:14;100555.70;;;15.50;97.52
28701;BME280;15877;52.344;16.790;2023-10-13T06:48:54;100552.44;;;15.56;97.15
28701;BME280;15877;52.344;16.790;2023-10-13T06:51:30;100548.02;;;15.55;97.42
28701;BME280;15877;52.344;16.790;2023-10-13T06:54:09;100545.41;;;15.60;97.39
28701;BME280;15877;52.344;16.790;2023-10-13T06:56:50;100547.81;;;15.61;97.83
28701;BME280;15877;52.344;16.790;2023-10-13T06:59:24;100551.66;;;15.62;97.86
28701;BME280;15877;52.344;16.790;2023-10-13T07:01:58;100545.52;;;15.68;97.85
28701;BME280;15877;52.344;16.790;2023-10-13T07:04:55;100544.90;;;15.76;97.31
28701;BME280;15877;52.344;16.790;2023-10-13T07:07:40;100546.42;;;15.80;97.32
28701;BME280;15877;52.344;16.790;2023-10-13T07:10:13;100548.67;;;15.80;98.05
28701;BME280;15877;52.344;16.790;2023-10-13T07:12:46;100552.70;;;15.86;98.25
28701;BME280;15877;52.344;16.790;2023-10-13T07:15:21;100553.09;;;15.90;98.41
28701;BME280;15877;52.344;16.790;2023-10-13T07:17:58;100547.73;;;15.92;98.65
28701;BME280;15877;52.344;16.790;2023-10-13T07:20:33;100543.50;;;15.94;99.30
28701;BME280;15877;52.344;16.790;2023-10-13T07:23:06;100547.19;;;16.01;98.24
28701;BME280;15877;52.344;16.790;2023-10-13T07:25:40;100543.93;;;16.06;98.15
28701;BME280;15877;52.344;16.790;2023-10-13T07:28:12;100534.16;;;16.06;98.79
28701;BME280;15877;52.344;16.790;2023-10-13T07:30:47;100524.06;;;16.09;99.13
28701;BME280;15877;52.344;16.790;2023-10-13T07:33:43;100519.11;;;16.15;98.84
28701;BME280;15877;52.344;16.790;2023-10-13T07:36:16;100515.98;;;16.19;98.90
28701;BME280;15877;52.344;16.790;2023-10-13T07:38:49;100521.11;;;16.22;99.38
28701;BME280;15877;52.344;16.790;2023-10-13T07:41:54;100527.60;;;16.25;99.85
28701;BME280;15877;52.344;16.790;2023-10-13T07:44:36;100531.93;;;16.31;99.96
28701;BME280;15877;52.344;16.790;2023-10-13T07:47:17;100523.91;;;16.34;99.92
28701;BME280;15877;52.344;16.790;2023-10-13T07:49:51;100522.64;;;16.33;100.00
28701;BME280;15877;52.344;16.790;2023-10-13T07:52:28;100518.71;;;16.36;100.00
28701;BME280;15877;52.344;16.790;2023-10-13T07:55:08;100515.91;;;16.40;100.00
28701;BME280;15877;52.344;16.790;2023-10-13T07:57:51;100505.51;;;16.46;99.93
28701;BME280;15877;52.344;16.790;2023-10-13T08:00:28;100504.48;;;16.48;99.85
28701;BME280;15877;52.344;16.790;2023-10-13T08:03:18;100507.75;;;16.47;100.00
28701;BME280;15877;52.344;16.790;2023-10-13T08:06:03;100490.45;;;16.45;100.00
28701;BME280;15877;52.344;16.790;2023-10-13T08:08:52;100501.42;;;16.58;99.99
28701;BME280;15877;52.344;16.790;2023-10-13T08:11:38;100500.93;;;16.62;99.91
28701;BME280;15877;52.344;16.790;2023-10-13T08:14:11;100491.33;;;16.61;100.00
28701;BME280;15877;52.344;16.790;2023-10-13T08:17:10;100486.59;;;16.59;100.00
28701;BME280;15877;52.344;16.790;2023-10-13T08:19:42;100482.66;;;16.62;100.00
28701;BME280;15877;52.344;16.790;2023-10-13T08:22:17;100480.73;;;16.61;100.00
28701;BME280;15877;52.344;16.790;2023-10-13T08:24:56;100476.88;;;16.68;100.00
28701;BME280;15877;52.344;16.790;2023-10-13T08:27:46;100476.64;;;16.68;100.00
28701;BME280;15877;52.344;16.790;2023-10-13T08:30:36;100473.67;;;16.74;100.00
28701;BME280;15877;52.344;16.790;2023-10-13T08:33:24;100475.00;;;16.82;100.00
28701;BME280;15877;52.344;16.790;2023-10-13T08:35:59;100477.00;;;16.82;100.00
28701;BME280;15877;52.344;16.790;2023-10-13T08:38:49;100476.20;;;16.85;100.00
28701;BME280;15877;52.344;16.790;2023-10-13T08:41:26;100476.66;;;16.91;100.00
28701;BME280;15877;52.344;16.790;2023-10-13T08:44:06;100471.58;;;17.02;100.00
28701;BME280;15877;52.344;16.790;2023-10-13T08:46:41;100473.33;;;17.03;100.00
28701;BME280;15877;52.344;16.790;2023-10-13T08:49:31;100468.84;;;17.05;100.00
28701;BME280;15877;52.344;16.790;2023-10-13T08:52:15;100461.34;;;17.13;100.00
28701;BME280;15877;52.344;16.790;2023-10-13T08:55:08;100447.14;;;17.13;100.00
28701;BME280;15877;52.344;16.790;2023-10-13T08:58:07;100458.79;;;17.28;100.00
28701;BME280;15877;52.344;16.790;2023-10-13T09:00:48;100459.66;;;17.32;100.00
28701;BME280;15877;52.344;16.790;2023-10-13T09:03:44;100459.52;;;17.42;100.00
28701;BME280;15877;52.344;16.790;2023-10-13T09:06:21;100460.00;;;17.42;100.00
28701;BME280;15877;52.344;16.790;2023-10-13T09:09:06;100457.05;;;17.41;100.00
28701;BME280;15877;52.344;16.790;2023-10-13T09:11:39;100458.23;;;17.50;100.00
28701;BME280;15877;52.344;16.790;2023-10-13T09:14:25;100452.77;;;17.47;100.00
28701;BME280;15877;52.344;16.790;2023-10-13T09:17:08;100450.21;;;17.43;100.00
28701;BME280;15877;52.344;16.790;2023-10-13T09:19:47;100447.97;;;17.60;100.00
28701;BME280;15877;52.344;16.790;2023-10-13T09:22:24;100440.42;;;17.73;100.00
28701;BME280;15877;52.344;16.790;2023-10-13T09:25:06;100441.03;;;17.67;100.00
28701;BME280;15877;52.344;16.790;2023-10-13T09:27:48;100431.23;;;17.76;100.00
28701;BME280;15877;52.344;16.790;2023-10-13T09:30:23;100423.06;;;17.96;100.00
28701;BME280;15877;52.344;16.790;2023-10-13T09:33:02;100418.77;;;18.09;100.00
28701;BME280;15877;52.344;16.790;2023-10-13T09:35:36;100419.64;;;18.11;100.00
28701;BME280;15877;52.344;16.790;2023-10-13T09:38:10;100422.90;;;18.14;100.00
28701;BME280;15877;52.344;16.790;2023-10-13T09:40:44;100418.27;;;18.21;100.00
28701;BME280;15877;52.344;16.790;2023-10-13T09:43:22;100417.27;;;18.24;100.00
28701;BME280;15877;52.344;16.790;2023-10-13T09:46:02;100417.92;;;18.32;100.00
28701;BME280;15877;52.344;16.790;2023-10-13T09:48:36;100412.24;;;18.37;100.00
28701;BME280;15877;52.344;16.790;2023-10-13T09:51:13;100410.83;;;18.44;100.00
28701;BME280;15877;52.344;16.790;2023-10-13T09:54:06;100404.48;;;18.52;100.00
28701;BME280;15877;52.344;16.790;2023-10-13T09:57:07;100403.12;;;18.73;100.00
28701;BME280;15877;52.344;16.790;2023-10-13T09:59:48;100403.36;;;18.80;100.00
28701;BME280;15877;52.344;16.790;2023-10-13T10:02:24;100393.58;;;18.97;99.00
28701;BME280;15877;52.344;16.790;2023-10-13T10:04:58;100392.89;;;19.06;98.37
28701;BME280;15877;52.344;16.790;2023-10-13T10:07:56;100385.33;;;19.12;96.66
28701;BME280;15877;52.344;16.790;2023-10-13T10:10:47;100372.33;;;19.20;95.30
28701;BME280;15877;52.344;16.790;2023-10-13T10:13:31;100371.44;;;19.21;95.71
28701;BME280;15877;52.344;16.790;2023-10-13T10:16:10;100365.31;;;19.40;95.45
28701;BME280;15877;52.344;16.790;2023-10-13T10:18:45;100359.80;;;19.58;94.27
28701;BME280;15877;52.344;16.790;2023-10-13T10:21:19;100360.65;;;19.76;93.20
28701;BME280;15877;52.344;16.790;2023-10-13T10:23:55;100350.50;;;19.61;93.60
28701;BME280;15877;52.344;16.790;2023-10-13T10:26:27;100355.27;;;19.76;94.04
28701;BME280;15877;52.344;16.790;2023-10-13T10:29:10;100350.47;;;19.73;92.07
28701;BME280;15877;52.344;16.790;2023-10-13T10:31:45;100339.79;;;19.81;93.72
28701;BME280;15877;52.344;16.790;2023-10-13T10:34:19;100341.69;;;19.82;92.13
28701;BME280;15877;52.344;16.790;2023-10-13T10:36:56;100331.78;;;19.83;91.75
28701;BME280;15877;52.344;16.790;2023-10-13T10:39:37;100322.86;;;19.77;92.91
28701;BME280;15877;52.344;16.790;2023-10-13T10:42:16;100338.47;;;19.96;92.59
28701;BME280;15877;52.344;16.790;2023-10-13T10:44:54;100329.42;;;19.89;92.46
28701;BME280;15877;52.344;16.790;2023-10-13T10:47:29;100333.55;;;19.74;91.71
28701;BME280;15877;52.344;16.790;2023-10-13T10:50:04;100320.20;;;19.63;91.86
28701;BME280;15877;52.344;16.790;2023-10-13T10:52:51;100326.42;;;19.61;92.22
28701;BME280;15877;52.344;16.790;2023-10-13T10:55:29;100320.28;;;19.63;92.62
28701;BME280;15877;52.344;16.790;2023-10-13T10:58:02;100314.44;;;19.65;92.56
28701;BME280;15877;52.344;16.790;2023-10-13T11:00:37;100312.94;;;19.54;92.37
28701;BME280;15877;52.344;16.790;2023-10-13T11:03:17;100310.66;;;19.51;93.39
28701;BME280;15877;52.344;16.790;2023-10-13T11:05:50;100298.46;;;19.42;94.94
28701;BME280;15877;52.344;16.790;2023-10-13T11:08:24;100308.41;;;19.45;95.28
28701;BME280;15877;52.344;16.790;2023-10-13T11:11:03;100312.39;;;19.53;95.03
28701;BME280;15877;52.344;16.790;2023-10-13T11:13:43;100306.48;;;19.50;95.91
28701;BME280;15877;52.344;16.790;2023-10-13T11:16:23;100298.20;;;19.54;95.65
28701;BME280;15877;52.344;16.790;2023-10-13T11:19:04;100290.05;;;19.51;96.41
28701;BME280;15877;52.344;16.790;2023-10-13T11:21:37;100287.17;;;19.49;96.73
28701;BME280;15877;52.344;16.790;2023-10-13T11:24:10;100284.48;;;19.52;97.06
28701;BME280;15877;52.344;16.790;2023-10-13T11:26:43;100280.88;;;19.51;97.58
28701;BME280;15877;52.344;16.790;2023-10-13T11:29:32;100273.80;;;19.49;97.56
28701;BME280;15877;52.344;16.790;2023-10-13T11:32:06;100247.94;;;19.36;98.85
28701;BME280;15877;52.344;16.790;2023-10-13T11:34:40;100262.90;;;19.57;97.51
28701;BME280;15877;52.344;16.790;2023-10-13T11:37:12;100262.59;;;19.61;98.26
28701;BME280;15877;52.344;16.790;2023-10-13T11:40:11;100261.38;;;19.66;98.84
28701;BME280;15877;52.344;16.790;2023-10-13T11:42:47;100261.10;;;19.67;99.19
28701;BME280;15877;52.344;16.790;2023-10-13T11:45:20;100253.58;;;19.69;99.65
28701;BME280;15877;52.344;16.790;2023-10-13T11:48:02;100240.80;;;19.63;98.32
28701;BME280;15877;52.344;16.790;2023-10-13T11:50:42;100236.83;;;19.60;98.23
28701;BME280;15877;52.344;16.790;2023-10-13T11:53:17;100233.77;;;19.61;97.83
28701;BME280;15877;52.344;16.790;2023-10-13T11:55:50;100225.66;;;19.68;97.89
28701;BME280;15877;52.344;16.790;2023-10-13T11:58:23;100222.06;;;19.67;97.27
28701;BME280;15877;52.344;16.790;2023-10-13T12:00:55;100218.84;;;19.62;98.76
28701;BME280;15877;52.344;16.790;2023-10-13T12:03:51;100204.20;;;19.47;98.40
28701;BME280;15877;52.344;16.790;2023-10-13T12:06:41;100213.70;;;19.61;98.11
28701;BME280;15877;52.344;16.790;2023-10-13T12:09:33;100208.64;;;19.73;96.89
28701;BME280;15877;52.344;16.790;2023-10-13T12:12:23;100202.94;;;19.72;96.70
28701;BME280;15877;52.344;16.790;2023-10-13T12:14:56;100205.21;;;19.63;97.91
28701;BME280;15877;52.344;16.790;2023-10-13T12:17:30;100211.17;;;19.71;97.42
28701;BME280;15877;52.344;16.790;2023-10-13T12:20:08;100200.42;;;19.73;96.44
28701;BME280;15877;52.344;16.790;2023-10-13T12:22:42;100191.38;;;19.71;96.49
28701;BME280;15877;52.344;16.790;2023-10-13T12:25:15;100200.34;;;19.78;96.89
28701;BME280;15877;52.344;16.790;2023-10-13T12:27:56;100197.86;;;19.77;96.71
28701;BME280;15877;52.344;16.790;2023-10-13T12:30:30;100185.17;;;19.71;96.01
28701;BME280;15877;52.344;16.790;2023-10-13T12:33:20;100180.90;;;19.72;95.43
28701;BME280;15877;52.344;16.790;2023-10-13T12:36:08;100180.59;;;19.79;95.00
28701;BME280;15877;52.344;16.790;2023-10-13T12:38:46;100181.23;;;19.84;94.69
28701;BME280;15877;52.344;16.790;2023-10-13T12:41:39;100175.55;;;19.81;95.52
28701;BME280;15877;52.344;16.790;2023-10-13T12:44:30;100171.25;;;19.87;96.18
28701;BME280;15877;52.344;16.790;2023-10-13T12:47:20;100171.80;;;19.83;96.81
28701;BME280;15877;52.344;16.790;2023-10-13T12:50:11;100179.50;;;19.89;95.73
28701;BME280;15877;52.344;16.790;2023-10-13T12:53:05;100178.12;;;19.90;95.40
28701;BME280;15877;52.344;16.790;2023-10-13T12:55:45;100174.21;;;19.88;93.50
28701;BME280;15877;52.344;16.790;2023-10-13T12:58:18;100169.29;;;19.89;93.13
28701;BME280;15877;52.344;16.790;2023-10-13T13:01:02;100168.73;;;19.96;93.08
28701;BME280;15877;52.344;16.790;2023-10-13T13:03:37;100158.48;;;19.96;93.63
28701;BME280;15877;52.344;16.790;2023-10-13T13:06:19;100153.47;;;20.05;92.37
28701;BME280;15877;52.344;16.790;2023-10-13T13:08:57;100156.50;;;20.06;91.07
28701;BME280;15877;52.344;16.790;2023-10-13T13:11:29;100149.64;;;20.03;91.42
28701;BME280;15877;52.344;16.790;2023-10-13T13:14:02;100152.11;;;20.08;91.51
28701;BME280;15877;52.344;16.790;2023-10-13T13:16:36;100143.92;;;20.07;92.80
28701;BME280;15877;52.344;16.790;2023-10-13T13:19:11;100145.65;;;20.12;93.13
28701;BME280;15877;52.344;16.790;2023-10-13T13:21:45;100143.10;;;20.07;91.97
28701;BME280;15877;52.344;16.790;2023-10-13T13:24:19;100134.45;;;20.13;91.39
28701;BME280;15877;52.344;16.790;2023-10-13T13:26:55;100133.05;;;20.15;91.36
28701;BME280;15877;52.344;16.790;2023-10-13T13:29:27;100125.67;;;20.13;91.09
28701;BME280;15877;52.344;16.790;2023-10-13T13:31:59;100116.09;;;20.20;90.71
28701;BME280;15877;52.344;16.790;2023-10-13T13:34:32;100113.05;;;20.10;90.49
28701;BME280;15877;52.344;16.790;2023-10-13T13:37:05;100108.59;;;20.12;91.32
28701;BME280;15877;52.344;16.790;2023-10-13T13:39:37;100090.48;;;20.05;90.73
28701;BME280;15877;52.344;16.790;2023-10-13T13:42:16;100101.59;;;20.08;90.55
28701;BME280;15877;52.344;16.790;2023-10-13T13:44:49;100095.85;;;19.95;91.07